sensor_id;sensor_type;location;lat;lon;timestamp;P1;durP1;ratioP1;P2;durP2;ratioP2
28296;SDS011;62078;49.366;8.172;2023-03-23T15:35:27;10.10;;;2.80;;
28296;SDS011;62078;49.366;8.172;2023-03-23T15:38:06;7.32;;;3.08;;
28296;SDS011;62078;49.366;8.172;2023-03-23T15:40:50;8.63;;;3.63;;
28296;SDS011;62078;49.366;8.172;2023-03-23T15:43:21;11.85;;;3.25;;
28296;SDS011;62078;49.366;8.172;2023-03-23T15:48:33;5.85;;;2.05;;
28296;SDS011;62078;49.366;8.172;2023-03-23T15:51:11;6.05;;;2.65;;
28296;SDS011;62078;49.366;8.172;2023-03-23T15:53:38;6.40;;;3.83;;
28296;SDS011;62078;49.366;8.172;2023-03-23T15:56:05;3.70;;;1.83;;
28296;SDS011;62078;49.366;8.172;2023-03-23T15:58:33;3.63;;;1.35;;
28296;SDS011;62078;49.366;8.172;2023-03-23T16:01:02;5.10;;;2.42;;
28296;SDS011;62078;49.366;8.172;2023-03-23T16:03:38;4.78;;;2.45;;
28296;SDS011;62078;49.366;8.172;2023-03-23T16:06:10;5.47;;;2.58;;
28296;SDS011;62078;49.366;8.172;2023-03-23T16:08:37;7.47;;;2.10;;
28296;SDS011;62078;49.366;8.172;2023-03-23T16:11:15;7.30;;;1.70;;
28296;SDS011;62078;49.366;8.172;2023-03-23T16:13:41;3.35;;;1.90;;
28296;SDS011;62078;49.366;8.172;2023-03-23T16:16:12;8.27;;;3.17;;
28296;SDS011;62078;49.366;8.172;2023-03-23T16:18:46;27.33;;;5.20;;
28296;SDS011;62078;49.366;8.172;2023-03-23T16:21:12;12.38;;;5.03;;
28296;SDS011;62078;49.366;8.172;2023-03-23T16:23:40;6.57;;;3.85;;
28296;SDS011;62078;49.366;8.172;2023-03-23T16:26:08;6.03;;;2.67;;
28296;SDS011;62078;49.366;8.172;2023-03-23T16:28:35;5.05;;;2.15;;
28296;SDS011;62078;49.366;8.172;2023-03-23T16:31:00;8.98;;;2.25;;
28296;SDS011;62078;49.366;8.172;2023-03-23T16:33:26;8.45;;;2.17;;
28296;SDS011;62078;49.366;8.172;2023-03-23T16:35:52;5.20;;;2.25;;
28296;SDS011;62078;49.366;8.172;2023-03-23T16:38:18;10.20;;;2.28;;
28296;SDS011;62078;49.366;8.172;2023-03-23T16:40:44;4.70;;;2.53;;
28296;SDS011;62078;49.366;8.172;2023-03-23T16:43:11;4.95;;;2.20;;
28296;SDS011;62078;49.366;8.172;2023-03-23T16:45:38;3.38;;;1.80;;
28296;SDS011;62078;49.366;8.172;2023-03-23T16:48:07;8.30;;;2.00;;
28296;SDS011;62078;49.366;8.172;2023-03-23T16:50:34;7.93;;;2.40;;
28296;SDS011;62078;49.366;8.172;2023-03-23T16:53:01;6.45;;;2.28;;
28296;SDS011;62078;49.366;8.172;2023-03-23T16:55:28;4.53;;;2.30;;
28296;SDS011;62078;49.366;8.172;2023-03-23T16:57:55;4.85;;;1.90;;
28296;SDS011;62078;49.366;8.172;2023-03-23T17:00:21;11.80;;;2.28;;
28296;SDS011;62078;49.366;8.172;2023-03-23T17:02:48;4.97;;;2.22;;
28296;SDS011;62078;49.366;8.172;2023-03-23T17:05:20;7.93;;;2.10;;
28296;SDS011;62078;49.366;8.172;2023-03-23T17:07:53;8.13;;;1.95;;
28296;SDS011;62078;49.366;8.172;2023-03-23T17:10:20;6.63;;;2.30;;
28296;SDS011;62078;49.366;8.172;2023-03-23T17:12:47;14.15;;;2.33;;
28296;SDS011;62078;49.366;8.172;2023-03-23T17:15:13;14.10;;;2.47;;
28296;SDS011;62078;49.366;8.172;2023-03-23T17:17:39;8.77;;;2.45;;
28296;SDS011;62078;49.366;8.172;2023-03-23T17:20:05;8.98;;;2.72;;
28296;SDS011;62078;49.366;8.172;2023-03-23T17:22:31;17.27;;;2.63;;
28296;SDS011;62078;49.366;8.172;2023-03-23T17:24:57;8.90;;;1.98;;
28296;SDS011;62078;49.366;8.172;2023-03-23T17:27:23;5.95;;;2.38;;
28296;SDS011;62078;49.366;8.172;2023-03-23T17:29:50;11.20;;;2.45;;
28296;SDS011;62078;49.366;8.172;2023-03-23T17:32:16;8.23;;;2.55;;
28296;SDS011;62078;49.366;8.172;2023-03-23T17:34:42;10.25;;;2.20;;
28296;SDS011;62078;49.366;8.172;2023-03-23T17:37:09;6.68;;;1.90;;
28296;SDS011;62078;49.366;8.172;2023-03-23T17:39:35;7.03;;;2.33;;
28296;SDS011;62078;49.366;8.172;2023-03-23T17:42:01;8.50;;;2.35;;
28296;SDS011;62078;49.366;8.172;2023-03-23T17:44:28;5.13;;;2.10;;
28296;SDS011;62078;49.366;8.172;2023-03-23T17:46:54;10.13;;;2.58;;
28296;SDS011;62078;49.366;8.172;2023-03-23T17:49:24;7.63;;;2.42;;
28296;SDS011;62078;49.366;8.172;2023-03-23T17:51:51;5.80;;;2.38;;
28296;SDS011;62078;49.366;8.172;2023-03-23T17:54:17;6.32;;;2.60;;
28296;SDS011;62078;49.366;8.172;2023-03-23T17:56:43;5.65;;;2.10;;
28296;SDS011;62078;49.366;8.172;2023-03-23T17:59:09;4.47;;;2.03;;
28296;SDS011;62078;49.366;8.172;2023-03-23T18:01:35;5.05;;;1.90;;
28296;SDS011;62078;49.366;8.172;2023-03-23T18:04:01;5.93;;;2.10;;
28296;SDS011;62078;49.366;8.172;2023-03-23T18:06:28;8.45;;;2.10;;
28296;SDS011;62078;49.366;8.172;2023-03-23T18:08:54;3.38;;;1.70;;
28296;SDS011;62078;49.366;8.172;2023-03-23T18:11:20;5.50;;;2.00;;
28296;SDS011;62078;49.366;8.172;2023-03-23T18:13:46;7.53;;;1.75;;
28296;SDS011;62078;49.366;8.172;2023-03-23T18:16:12;6.80;;;2.10;;
28296;SDS011;62078;49.366;8.172;2023-03-23T18:18:37;5.90;;;2.30;;
28296;SDS011;62078;49.366;8.172;2023-03-23T18:21:05;5.28;;;2.05;;
28296;SDS011;62078;49.366;8.172;2023-03-23T18:23:32;5.28;;;2.10;;
28296;SDS011;62078;49.366;8.172;2023-03-23T18:26:04;6.32;;;2.30;;
28296;SDS011;62078;49.366;8.172;2023-03-23T18:28:31;7.05;;;2.30;;
28296;SDS011;62078;49.366;8.172;2023-03-23T18:31:05;7.93;;;2.60;;
28296;SDS011;62078;49.366;8.172;2023-03-23T18:33:32;9.18;;;2.08;;
28296;SDS011;62078;49.366;8.172;2023-03-23T18:36:00;7.32;;;1.88;;
28296;SDS011;62078;49.366;8.172;2023-03-23T18:38:27;9.00;;;2.42;;
28296;SDS011;62078;49.366;8.172;2023-03-23T18:40:53;14.15;;;2.22;;
28296;SDS011;62078;49.366;8.172;2023-03-23T18:43:19;7.97;;;2.20;;
28296;SDS011;62078;49.366;8.172;2023-03-23T18:45:49;15.25;;;2.20;;
28296;SDS011;62078;49.366;8.172;2023-03-23T18:48:16;6.45;;;2.20;;
28296;SDS011;62078;49.366;8.172;2023-03-23T18:50:46;17.52;;;2.00;;
28296;SDS011;62078;49.366;8.172;2023-03-23T18:53:12;12.20;;;2.70;;
28296;SDS011;62078;49.366;8.172;2023-03-23T18:55:40;6.63;;;1.98;;
28296;SDS011;62078;49.366;8.172;2023-03-23T18:58:07;9.93;;;2.80;;
28296;SDS011;62078;49.366;8.172;2023-03-23T19:00:33;8.90;;;2.40;;
28296;SDS011;62078;49.366;8.172;2023-03-23T19:02:59;14.02;;;2.50;;
28296;SDS011;62078;49.366;8.172;2023-03-23T19:05:28;14.85;;;2.67;;
28296;SDS011;62078;49.366;8.172;2023-03-23T19:07:54;6.80;;;2.15;;
28296;SDS011;62078;49.366;8.172;2023-03-23T19:10:21;8.05;;;2.35;;
28296;SDS011;62078;49.366;8.172;2023-03-23T19:12:48;4.72;;;2.25;;
28296;SDS011;62078;49.366;8.172;2023-03-23T19:15:15;7.47;;;2.70;;
28296;SDS011;62078;49.366;8.172;2023-03-23T19:17:41;5.80;;;2.38;;
28296;SDS011;62078;49.366;8.172;2023-03-23T19:20:08;9.10;;;3.05;;
28296;SDS011;62078;49.366;8.172;2023-03-23T19:22:37;5.53;;;2.53;;
28296;SDS011;62078;49.366;8.172;2023-03-23T19:25:04;7.95;;;2.40;;
28296;SDS011;62078;49.366;8.172;2023-03-23T19:27:33;11.45;;;2.88;;
28296;SDS011;62078;49.366;8.172;2023-03-23T19:29:59;5.68;;;2.35;;
28296;SDS011;62078;49.366;8.172;2023-03-23T19:32:25;9.23;;;3.00;;
28296;SDS011;62078;49.366;8.172;2023-03-23T19:34:51;6.75;;;2.38;;
28296;SDS011;62078;49.366;8.172;2023-03-23T19:37:17;7.80;;;3.00;;
28296;SDS011;62078;49.366;8.172;2023-03-23T19:39:43;7.25;;;2.65;;
28296;SDS011;62078;49.366;8.172;2023-03-23T19:42:08;8.73;;;2.70;;
28296;SDS011;62078;49.366;8.172;2023-03-23T19:44:35;5.38;;;2.40;;
28296;SDS011;62078;49.366;8.172;2023-03-23T19:47:01;6.28;;;2.28;;
28296;SDS011;62078;49.366;8.172;2023-03-23T19:49:26;7.30;;;2.13;;
28296;SDS011;62078;49.366;8.172;2023-03-23T19:51:53;6.55;;;2.53;;
28296;SDS011;62078;49.366;8.172;2023-03-23T19:54:19;6.35;;;2.60;;
28296;SDS011;62078;49.366;8.172;2023-03-23T19:56:45;7.65;;;2.45;;
28296;SDS011;62078;49.366;8.172;2023-03-23T19:59:11;10.10;;;2.53;;
28296;SDS011;62078;49.366;8.172;2023-03-23T20:01:39;4.15;;;2.10;;
28296;SDS011;62078;49.366;8.172;2023-03-23T20:04:06;3.75;;;1.90;;
28296;SDS011;62078;49.366;8.172;2023-03-23T20:06:33;4.50;;;2.03;;
28296;SDS011;62078;49.366;8.172;2023-03-23T20:08:59;5.20;;;2.28;;
28296;SDS011;62078;49.366;8.172;2023-03-23T20:11:25;6.75;;;2.60;;
28296;SDS011;62078;49.366;8.172;2023-03-23T20:13:51;4.30;;;2.00;;
28296;SDS011;62078;49.366;8.172;2023-03-23T20:16:17;5.40;;;2.25;;
28296;SDS011;62078;49.366;8.172;2023-03-23T20:18:44;4.65;;;2.05;;
28296;SDS011;62078;49.366;8.172;2023-03-23T20:21:18;4.90;;;1.95;;
28296;SDS011;62078;49.366;8.172;2023-03-23T20:23:46;5.32;;;2.60;;
28296;SDS011;62078;49.366;8.172;2023-03-23T20:26:24;3.80;;;2.03;;
28296;SDS011;62078;49.366;8.172;2023-03-23T20:28:50;6.15;;;2.15;;
28296;SDS011;62078;49.366;8.172;2023-03-23T20:31:17;4.95;;;1.65;;
28296;SDS011;62078;49.366;8.172;2023-03-23T20:33:48;5.60;;;2.10;;
28296;SDS011;62078;49.366;8.172;2023-03-23T20:36:16;6.03;;;1.75;;
28296;SDS011;62078;49.366;8.172;2023-03-23T20:38:45;3.33;;;1.77;;
28296;SDS011;62078;49.366;8.172;2023-03-23T20:41:12;4.07;;;1.92;;
28296;SDS011;62078;49.366;8.172;2023-03-23T20:43:39;3.72;;;2.25;;
28296;SDS011;62078;49.366;8.172;2023-03-23T20:46:08;5.57;;;2.00;;
28296;SDS011;62078;49.366;8.172;2023-03-23T20:48:35;4.40;;;2.35;;
28296;SDS011;62078;49.366;8.172;2023-03-23T20:51:03;4.25;;;2.00;;
28296;SDS011;62078;49.366;8.172;2023-03-23T20:53:30;8.13;;;2.03;;
28296;SDS011;62078;49.366;8.172;2023-03-23T20:55:58;4.22;;;1.58;;
28296;SDS011;62078;49.366;8.172;2023-03-23T20:58:27;6.43;;;1.95;;
28296;SDS011;62078;49.366;8.172;2023-03-23T21:00:55;5.88;;;2.20;;
28296;SDS011;62078;49.366;8.172;2023-03-23T21:03:25;6.95;;;2.70;;
28296;SDS011;62078;49.366;8.172;2023-03-23T21:05:52;8.43;;;1.70;;
28296;SDS011;62078;49.366;8.172;2023-03-23T21:08:18;7.68;;;1.70;;
28296;SDS011;62078;49.366;8.172;2023-03-23T21:10:45;4.65;;;1.95;;
28296;SDS011;62078;49.366;8.172;2023-03-23T21:13:12;5.45;;;2.20;;
28296;SDS011;62078;49.366;8.172;2023-03-23T21:15:39;4.43;;;2.30;;
28296;SDS011;62078;49.366;8.172;2023-03-23T21:18:05;4.53;;;2.15;;
28296;SDS011;62078;49.366;8.172;2023-03-23T21:20:31;5.45;;;2.10;;
28296;SDS011;62078;49.366;8.172;2023-03-23T21:22:58;6.45;;;1.77;;
28296;SDS011;62078;49.366;8.172;2023-03-23T21:25:25;5.75;;;2.00;;
28296;SDS011;62078;49.366;8.172;2023-03-23T21:27:52;5.25;;;1.70;;
28296;SDS011;62078;49.366;8.172;2023-03-23T21:30:19;17.05;;;1.88;;
28296;SDS011;62078;49.366;8.172;2023-03-23T21:32:45;5.55;;;2.25;;
28296;SDS011;62078;49.366;8.172;2023-03-23T21:35:12;5.32;;;2.00;;
28296;SDS011;62078;49.366;8.172;2023-03-23T21:37:38;4.80;;;2.05;;
28296;SDS011;62078;49.366;8.172;2023-03-23T21:40:05;9.32;;;2.38;;
28296;SDS011;62078;49.366;8.172;2023-03-23T21:42:37;7.00;;;2.00;;
28296;SDS011;62078;49.366;8.172;2023-03-23T21:45:06;4.88;;;1.83;;
28296;SDS011;62078;49.366;8.172;2023-03-23T21:47:34;5.03;;;1.90;;
28296;SDS011;62078;49.366;8.172;2023-03-23T21:50:01;8.52;;;2.15;;
28296;SDS011;62078;49.366;8.172;2023-03-23T21:52:28;7.93;;;1.92;;
28296;SDS011;62078;49.366;8.172;2023-03-23T21:54:56;6.18;;;1.98;;
28296;SDS011;62078;49.366;8.172;2023-03-23T21:57:26;6.53;;;1.95;;
28296;SDS011;62078;49.366;8.172;2023-03-23T21:59:55;5.30;;;2.08;;
28296;SDS011;62078;49.366;8.172;2023-03-23T22:02:21;5.05;;;1.92;;
28296;SDS011;62078;49.366;8.172;2023-03-23T22:04:47;4.03;;;1.85;;
28296;SDS011;62078;49.366;8.172;2023-03-23T22:07:13;5.80;;;2.10;;
28296;SDS011;62078;49.366;8.172;2023-03-23T22:09:40;5.68;;;1.85;;
28296;SDS011;62078;49.366;8.172;2023-03-23T22:12:08;5.10;;;1.77;;
28296;SDS011;62078;49.366;8.172;2023-03-23T22:14:37;4.18;;;1.90;;
28296;SDS011;62078;49.366;8.172;2023-03-23T22:17:03;4.63;;;1.92;;
28296;SDS011;62078;49.366;8.172;2023-03-23T22:19:29;6.03;;;2.00;;
28296;SDS011;62078;49.366;8.172;2023-03-23T22:21:57;4.65;;;1.90;;
28296;SDS011;62078;49.366;8.172;2023-03-23T22:24:23;4.55;;;1.92;;
28296;SDS011;62078;49.366;8.172;2023-03-23T22:26:48;4.82;;;2.15;;
28296;SDS011;62078;49.366;8.172;2023-03-23T22:29:14;9.07;;;1.85;;
28296;SDS011;62078;49.366;8.172;2023-03-23T22:31:41;8.30;;;2.30;;
28296;SDS011;62078;49.366;8.172;2023-03-23T22:34:08;4.65;;;1.75;;
28296;SDS011;62078;49.366;8.172;2023-03-23T22:36:35;9.15;;;2.30;;
28296;SDS011;62078;49.366;8.172;2023-03-23T22:39:03;8.68;;;2.17;;
28296;SDS011;62078;49.366;8.172;2023-03-23T22:41:30;7.35;;;1.85;;
28296;SDS011;62078;49.366;8.172;2023-03-23T22:43:58;4.10;;;2.00;;
28296;SDS011;62078;49.366;8.172;2023-03-23T22:46:24;4.97;;;1.70;;
28296;SDS011;62078;49.366;8.172;2023-03-23T22:48:50;5.93;;;1.67;;
28296;SDS011;62078;49.366;8.172;2023-03-23T22:51:17;4.95;;;1.83;;
28296;SDS011;62078;49.366;8.172;2023-03-23T22:53:43;3.88;;;1.73;;
28296;SDS011;62078;49.366;8.172;2023-03-23T22:56:10;5.97;;;2.30;;
28296;SDS011;62078;49.366;8.172;2023-03-23T22:58:36;5.38;;;1.88;;
28296;SDS011;62078;49.366;8.172;2023-03-23T23:01:04;6.28;;;1.80;;
28296;SDS011;62078;49.366;8.172;2023-03-23T23:03:31;5.75;;;2.03;;
28296;SDS011;62078;49.366;8.172;2023-03-23T23:05:58;5.20;;;1.88;;
28296;SDS011;62078;49.366;8.172;2023-03-23T23:08:25;6.88;;;1.33;;
28296;SDS011;62078;49.366;8.172;2023-03-23T23:10:53;8.32;;;1.75;;
28296;SDS011;62078;49.366;8.172;2023-03-23T23:13:20;4.53;;;1.80;;
28296;SDS011;62078;49.366;8.172;2023-03-23T23:15:48;6.60;;;2.28;;
28296;SDS011;62078;49.366;8.172;2023-03-23T23:18:17;3.97;;;1.77;;
28296;SDS011;62078;49.366;8.172;2023-03-23T23:20:47;4.00;;;1.80;;
28296;SDS011;62078;49.366;8.172;2023-03-23T23:23:14;5.90;;;2.05;;
28296;SDS011;62078;49.366;8.172;2023-03-23T23:25:40;6.22;;;1.83;;
28296;SDS011;62078;49.366;8.172;2023-03-23T23:28:06;4.90;;;1.98;;
28296;SDS011;62078;49.366;8.172;2023-03-23T23:30:32;7.38;;;2.05;;
28296;SDS011;62078;49.366;8.172;2023-03-23T23:32:58;5.68;;;1.60;;
28296;SDS011;62078;49.366;8.172;2023-03-23T23:35:25;6.85;;;1.95;;
28296;SDS011;62078;49.366;8.172;2023-03-23T23:37:51;9.52;;;1.92;;
28296;SDS011;62078;49.366;8.172;2023-03-23T23:40:18;4.35;;;1.77;;
28296;SDS011;62078;49.366;8.172;2023-03-23T23:42:44;5.43;;;1.98;;
28296;SDS011;62078;49.366;8.172;2023-03-23T23:45:13;9.02;;;2.00;;
28296;SDS011;62078;49.366;8.172;2023-03-23T23:47:40;5.68;;;1.67;;
28296;SDS011;62078;49.366;8.172;2023-03-23T23:50:07;7.05;;;1.95;;
28296;SDS011;62078;49.366;8.172;2023-03-23T23:52:35;5.72;;;1.58;;
28296;SDS011;62078;49.366;8.172;2023-03-23T23:55:03;4.32;;;1.50;;
28296;SDS011;62078;49.366;8.172;2023-03-23T23:57:30;4.50;;;1.75;;
28296;SDS011;62078;49.366;8.172;2023-03-23T23:59:56;4.68;;;1.92;;
